N5797C -KFRG

Flight info

Callsign N5797C
Flight time N/A
Altitude VFR
Route FF WEST
Aircraft C172/L-DOV/C

Departure

Time N/A
Airport -

Arrival

Time 2026-04-30 01:06
Airport Republic Airport (KFRG)
Time Latitude Longitude Altitude Speed Heading
2026-04-30 00:24 40.93802 -72.22970 1198 ft 97 kts 240°
2026-04-30 00:24 40.93502 -72.23740 1363 ft 98 kts 237°
2026-04-30 00:24 40.93080 -72.24458 1520 ft 94 kts 227°
2026-04-30 00:25 40.92658 -72.25168 1579 ft 102 kts 233°
2026-04-30 00:25 40.92264 -72.25931 1722 ft 99 kts 230°
2026-04-30 00:25 40.92113 -72.26896 1626 ft 116 kts 260°
2026-04-30 00:25 40.91927 -72.27764 1897 ft 95 kts 243°
2026-04-30 00:26 40.91592 -72.28613 1880 ft 103 kts 239°
2026-04-30 00:26 40.91279 -72.29478 1881 ft 110 kts 242°
2026-04-30 00:26 40.90960 -72.30392 1963 ft 106 kts 242°
2026-04-30 00:26 40.90670 -72.31282 2008 ft 109 kts 244°
2026-04-30 00:27 40.90392 -72.32195 2076 ft 108 kts 247°
2026-04-30 00:27 40.90134 -72.33130 2139 ft 106 kts 247°
2026-04-30 00:27 40.89880 -72.34031 2192 ft 107 kts 248°
2026-04-30 00:27 40.89607 -72.34954 2209 ft 106 kts 245°
2026-04-30 00:28 40.89318 -72.35866 2189 ft 110 kts 245°
2026-04-30 00:28 40.89048 -72.36791 2243 ft 105 kts 242°
2026-04-30 00:28 40.88570 -72.37503 2169 ft 107 kts 204°
2026-04-30 00:28 40.87993 -72.38085 2184 ft 110 kts 239°
2026-04-30 00:29 40.87780 -72.39065 2218 ft 105 kts 253°
2026-04-30 00:29 40.87591 -72.40005 2198 ft 111 kts 251°
2026-04-30 00:29 40.87283 -72.40907 2232 ft 106 kts 229°
2026-04-30 00:29 40.86818 -72.41672 2244 ft 108 kts 239°
2026-04-30 00:30 40.86532 -72.42627 2122 ft 120 kts 253°
2026-04-30 00:30 40.86411 -72.43338 2123 ft 116 kts 256°
2026-04-30 00:30 40.86243 -72.44351 2132 ft 114 kts 255°
2026-04-30 00:30 40.86050 -72.45392 2081 ft 117 kts 253°
2026-04-30 00:31 40.85845 -72.46410 2076 ft 113 kts 252°
2026-04-30 00:31 40.85641 -72.47429 2026 ft 115 kts 254°
2026-04-30 00:31 40.85462 -72.48448 2028 ft 113 kts 254°
2026-04-30 00:31 40.85194 -72.49436 1969 ft 116 kts 243°
2026-04-30 00:32 40.84927 -72.50442 1937 ft 117 kts 254°
2026-04-30 00:32 40.84712 -72.51459 1946 ft 113 kts 253°
2026-04-30 00:32 40.84491 -72.52471 1894 ft 117 kts 252°
2026-04-30 00:32 40.84277 -72.53503 1879 ft 115 kts 256°
2026-04-30 00:33 40.84083 -72.54523 1841 ft 117 kts 253°
2026-04-30 00:33 40.83861 -72.55558 1835 ft 114 kts 253°
2026-04-30 00:33 40.83647 -72.56557 1813 ft 116 kts 252°
2026-04-30 00:33 40.83412 -72.57589 1790 ft 115 kts 253°
2026-04-30 00:34 40.83213 -72.58594 1793 ft 114 kts 255°
2026-04-30 00:34 40.83006 -72.59614 1766 ft 114 kts 252°
2026-04-30 00:34 40.82740 -72.60592 1752 ft 114 kts 246°
2026-04-30 00:34 40.82499 -72.61609 1721 ft 116 kts 251°
2026-04-30 00:35 40.82339 -72.62645 1745 ft 114 kts 257°
2026-04-30 00:35 40.82203 -72.63654 1759 ft 113 kts 255°
2026-04-30 00:35 40.81980 -72.64657 1715 ft 115 kts 247°
2026-04-30 00:35 40.81740 -72.65655 1692 ft 113 kts 251°
2026-04-30 00:36 40.81531 -72.66644 1677 ft 113 kts 252°
2026-04-30 00:36 40.81337 -72.67665 1644 ft 114 kts 255°
2026-04-30 00:36 40.81176 -72.68665 1653 ft 110 kts 256°
2026-04-30 00:36 40.81030 -72.69693 1636 ft 115 kts 257°
2026-04-30 00:37 40.80914 -72.70699 1732 ft 109 kts 259°
2026-04-30 00:37 40.80919 -72.71752 1633 ft 121 kts 281°
2026-04-30 00:37 40.81253 -72.72735 1741 ft 115 kts 303°
2026-04-30 00:37 40.81697 -72.73624 1746 ft 119 kts 301°
2026-04-30 00:38 40.82135 -72.74558 1769 ft 119 kts 302°
2026-04-30 00:38 40.82530 -72.75502 1788 ft 117 kts 289°
2026-04-30 00:38 40.82651 -72.76569 1777 ft 118 kts 268°
2026-04-30 00:38 40.82604 -72.77607 1844 ft 113 kts 260°
2026-04-30 00:39 40.82522 -72.78668 1831 ft 116 kts 262°
2026-04-30 00:39 40.82349 -72.79648 1919 ft 110 kts 248°
2026-04-30 00:39 40.82111 -72.80614 1950 ft 105 kts 256°
2026-04-30 00:39 40.82104 -72.81573 1960 ft 110 kts 282°
2026-04-30 00:40 40.82309 -72.82526 2036 ft 105 kts 287°
2026-04-30 00:40 40.82501 -72.83468 2048 ft 109 kts 283°
2026-04-30 00:40 40.82622 -72.84446 2102 ft 106 kts 277°
2026-04-30 00:40 40.82673 -72.85424 2118 ft 108 kts 274°
2026-04-30 00:41 40.82774 -72.86405 2159 ft 107 kts 280°
2026-04-30 00:41 40.82887 -72.87378 2196 ft 108 kts 278°
2026-04-30 00:41 40.83004 -72.88351 2236 ft 107 kts 277°
2026-04-30 00:41 40.83010 -72.89341 2259 ft 108 kts 267°
2026-04-30 00:42 40.82959 -72.90326 2304 ft 108 kts 265°
2026-04-30 00:42 40.82870 -72.91311 2328 ft 108 kts 261°
2026-04-30 00:42 40.82664 -72.92264 2359 ft 108 kts 251°
2026-04-30 00:42 40.82414 -72.93186 2395 ft 108 kts 251°
2026-04-30 00:43 40.82161 -72.94120 2423 ft 108 kts 251°
2026-04-30 00:43 40.81903 -72.95049 2463 ft 108 kts 250°
2026-04-30 00:43 40.81644 -72.95984 2481 ft 109 kts 251°
2026-04-30 00:43 40.81413 -72.96930 2513 ft 108 kts 253°
2026-04-30 00:44 40.81146 -72.97857 2535 ft 109 kts 246°
2026-04-30 00:44 40.80798 -72.98744 2563 ft 108 kts 245°
2026-04-30 00:44 40.80493 -72.99654 2586 ft 108 kts 247°
2026-04-30 00:44 40.80202 -73.00572 2619 ft 108 kts 249°
2026-04-30 00:45 40.79932 -73.01498 2642 ft 109 kts 253°
2026-04-30 00:45 40.79738 -73.02468 2655 ft 109 kts 255°
2026-04-30 00:45 40.79529 -73.03429 2685 ft 108 kts 254°
2026-04-30 00:45 40.79308 -73.04381 2706 ft 109 kts 253°
2026-04-30 00:46 40.79085 -73.05332 2738 ft 108 kts 254°
2026-04-30 00:46 40.78854 -73.06278 2759 ft 108 kts 253°
2026-04-30 00:46 40.78599 -73.07216 2777 ft 109 kts 250°
2026-04-30 00:46 40.78333 -73.08150 2797 ft 109 kts 252°
2026-04-30 00:47 40.78081 -73.09089 2826 ft 109 kts 250°
2026-04-30 00:47 40.77835 -73.10032 2845 ft 109 kts 253°
2026-04-30 00:47 40.77605 -73.10982 2870 ft 109 kts 253°
2026-04-30 00:47 40.77359 -73.11925 2886 ft 109 kts 251°
2026-04-30 00:48 40.77071 -73.12838 2887 ft 110 kts 251°
2026-04-30 00:48 40.76884 -73.13812 2914 ft 109 kts 261°
2026-04-30 00:48 40.76745 -73.14792 2930 ft 109 kts 259°
2026-04-30 00:48 40.76596 -73.15773 2946 ft 109 kts 260°
2026-04-30 00:49 40.76431 -73.16745 2975 ft 109 kts 255°
2026-04-30 00:49 40.76190 -73.17691 2979 ft 110 kts 242°
2026-04-30 00:49 40.75599 -73.18293 3030 ft 107 kts 192°
2026-04-30 00:49 40.74923 -73.17944 2981 ft 116 kts 124°
2026-04-30 00:50 40.75015 -73.17020 3053 ft 109 kts 39°
2026-04-30 00:50 40.75694 -73.17071 3031 ft 110 kts 309°
2026-04-30 00:50 40.75565 -73.17972 2992 ft 112 kts 212°
2026-04-30 00:50 40.74908 -73.17698 3003 ft 114 kts 118°
2026-04-30 00:51 40.75118 -73.16838 2984 ft 115 kts 19°
2026-04-30 00:51 40.75651 -73.17415 2766 ft 124 kts 258°
2026-04-30 00:51 40.74973 -73.17594 2555 ft 132 kts 124°
2026-04-30 00:51 40.75299 -73.16751 2610 ft 114 kts 356°
2026-04-30 00:52 40.75502 -73.17561 2377 ft 126 kts 224°
2026-04-30 00:52 40.74858 -73.17290 2429 ft 118 kts 96°
2026-04-30 00:52 40.75427 -73.16751 2361 ft 114 kts 336°
2026-04-30 00:52 40.75465 -73.17562 2263 ft 121 kts 207°
2026-04-30 00:53 40.74948 -73.16926 2037 ft 129 kts 68°
2026-04-30 00:53 40.75587 -73.17023 1804 ft 131 kts 275°
2026-04-30 00:53 40.74955 -73.17276 1675 ft 129 kts 124°
2026-04-30 00:53 40.75140 -73.16345 1711 ft 117 kts 25°
2026-04-30 00:54 40.75867 -73.16585 1666 ft 111 kts 308°
2026-04-30 00:54 40.76132 -73.17497 1684 ft 107 kts 278°
2026-04-30 00:54 40.76155 -73.18464 1699 ft 105 kts 269°
2026-04-30 00:54 40.76094 -73.19428 1690 ft 106 kts 264°
2026-04-30 00:55 40.75983 -73.20383 1698 ft 105 kts 259°
2026-04-30 00:55 40.75798 -73.21321 1667 ft 108 kts 253°
2026-04-30 00:55 40.75302 -73.23181 1621 ft 108 kts 256°
2026-04-30 00:56 40.75130 -73.24134 1596 ft 108 kts 263°
2026-04-30 00:56 40.75073 -73.25109 1591 ft 107 kts 268°
2026-04-30 00:56 40.75077 -73.26086 1625 ft 98 kts 273°
2026-04-30 00:56 40.75117 -73.26937 1673 ft 96 kts 271°
2026-04-30 00:57 40.75107 -73.27829 1678 ft 96 kts 268°
2026-04-30 00:57 40.75053 -73.28700 1693 ft 97 kts 268°
2026-04-30 00:57 40.75040 -73.29585 1714 ft 96 kts 270°
2026-04-30 00:57 40.75037 -73.30476 1726 ft 96 kts 271°
2026-04-30 00:58 40.75027 -73.31357 1744 ft 96 kts 266°
2026-04-30 00:58 40.74929 -73.32232 1739 ft 98 kts 259°
2026-04-30 00:58 40.74758 -73.33140 1607 ft 107 kts 256°
2026-04-30 00:58 40.74540 -73.34138 1424 ft 113 kts 256°
2026-04-30 00:59 40.74488 -73.35089 1509 ft 98 kts 281°
2026-04-30 00:59 40.74758 -73.35945 1440 ft 103 kts 300°
2026-04-30 00:59 40.75110 -73.36742 1457 ft 100 kts 303°
2026-04-30 00:59 40.75512 -73.37506 1423 ft 102 kts 307°
2026-04-30 01:00 40.75951 -73.38223 1427 ft 100 kts 312°
2026-04-30 01:00 40.76415 -73.38913 1406 ft 101 kts 311°
2026-04-30 01:00 40.76885 -73.39598 1397 ft 101 kts 309°
2026-04-30 01:00 40.77276 -73.40317 1408 ft 93 kts 302°
2026-04-30 01:01 40.77613 -73.41039 1388 ft 90 kts 306°
2026-04-30 01:01 40.78019 -73.41632 1423 ft 85 kts 310°
2026-04-30 01:01 40.78356 -73.42296 1221 ft 103 kts 329°
2026-04-30 01:01 40.78943 -73.42733 1270 ft 88 kts 334°
2026-04-30 01:02 40.79464 -73.43086 1306 ft 85 kts 331°
2026-04-30 01:02 40.79744 -73.43684 1268 ft 88 kts 275°
2026-04-30 01:02 40.79685 -73.44493 1274 ft 85 kts 251°
2026-04-30 01:02 40.79378 -73.45179 1268 ft 86 kts 236°
2026-04-30 01:03 40.79034 -73.45812 1273 ft 86 kts 233°
2026-04-30 01:03 40.78595 -73.46342 1224 ft 92 kts 198°
2026-04-30 01:03 40.77975 -73.46129 1182 ft 92 kts 155°
2026-04-30 01:03 40.77412 -73.45787 1218 ft 88 kts 159°
2026-04-30 01:04 40.76806 -73.45563 1109 ft 94 kts 169°
2026-04-30 01:04 40.76200 -73.45315 936 ft 88 kts 161°
2026-04-30 01:04 40.75641 -73.45014 809 ft 85 kts 158°
2026-04-30 01:04 40.75133 -73.44604 641 ft 88 kts 140°
2026-04-30 01:05 40.74707 -73.44019 488 ft 87 kts 130°
2026-04-30 01:05 40.74316 -73.43417 332 ft 84 kts 133°
2026-04-30 01:05 40.73949 -73.42870 226 ft 76 kts 130°
2026-04-30 01:05 40.73604 -73.42380 145 ft 71 kts 133°
2026-04-30 01:06 40.73288 -73.41920 86 ft 57 kts 133°
2026-04-30 01:06 40.73126 -73.41686 76 ft 19 kts 132°
2026-04-30 01:06 40.73038 -73.41585 77 ft 17 kts 135°
2026-04-30 01:06 40.72981 -73.41561 69 ft 0 kts 178°
2026-04-30 01:07 40.72952 -73.41559 74 ft 11 kts 176°
2026-04-30 01:07 40.72948 -73.41652 79 ft 19 kts 298°
2026-04-30 01:07 40.72941 -73.41793 79 ft 13 kts 284°
2026-04-30 01:08 40.72964 -73.41893 76 ft 9 kts 307°
2026-04-30 01:08 40.72984 -73.41899 78 ft 0 kts 38°